createdAt,value
2023-06-17T00:03:52.193Z,100050.06
2023-06-17T00:08:55.950Z,100037.75
2023-06-17T00:14:02.029Z,100038.13
2023-06-17T00:19:05.480Z,100028.28
2023-06-17T00:24:08.475Z,100029.66
2023-06-17T00:29:12.636Z,100020.91
2023-06-17T00:34:15.665Z,100024.16
2023-06-17T00:39:18.513Z,100025.69
2023-06-17T00:44:23.436Z,100023.25
2023-06-17T00:49:34.935Z,100015.50
2023-06-17T00:54:38.901Z,100018.31
2023-06-17T00:59:44.994Z,100013.03
2023-06-17T01:04:48.500Z,100012.22
2023-06-17T01:09:56.591Z,100012.97
2023-06-17T01:15:02.251Z,100010.78
2023-06-17T01:20:07.189Z,100014.94
2023-06-17T01:25:14.226Z,100013.94
2023-06-17T01:30:17.685Z,100003.81
2023-06-17T01:35:20.724Z,99998.53
2023-06-17T01:40:25.809Z,99998.81
2023-06-17T01:45:29.054Z,100002.31
2023-06-17T01:50:31.820Z,99995.09
2023-06-17T01:55:36.133Z,100001.16
2023-06-17T02:00:38.944Z,99990.75
2023-06-17T02:05:41.797Z,99998.03
2023-06-17T02:10:45.972Z,99995.53
2023-06-17T02:15:48.805Z,99992.88
2023-06-17T02:20:51.848Z,99994.88
2023-06-17T02:25:57.654Z,100006.22
2023-06-17T02:31:01.621Z,99996.56
2023-06-17T02:36:04.792Z,99993.34
2023-06-17T02:41:09.356Z,99989.78
2023-06-17T02:46:13.609Z,99988.34
2023-06-17T02:51:16.811Z,99994.63
2023-06-17T02:56:21.234Z,99986.97
2023-06-17T03:01:24.514Z,99989.78
2023-06-17T03:06:27.681Z,99998.81
2023-06-17T03:11:32.031Z,99997.72
2023-06-17T03:16:41.662Z,100002.72
2023-06-17T03:21:46.201Z,100004.47
2023-06-17T03:26:51.010Z,99993.31
2023-06-17T03:31:57.944Z,100008.97
2023-06-17T03:37:02.750Z,100000.31
2023-06-17T03:42:07.737Z,100003.81
2023-06-17T03:47:11.833Z,99997.91
2023-06-17T03:52:15.954Z,100007.41
2023-06-17T03:57:20.191Z,100005.59
2023-06-17T04:02:23.652Z,100003.53
2023-06-17T04:07:28.536Z,100009.72
2023-06-17T04:12:32.671Z,100008.53
2023-06-17T04:17:38.085Z,100016.53
2023-06-17T04:22:41.745Z,100010.59
2023-06-17T04:27:46.695Z,100012.91
2023-06-17T04:32:51.283Z,100013.63
2023-06-17T04:37:55.664Z,100017.09
2023-06-17T04:43:00.792Z,100027.13
2023-06-17T04:48:06.912Z,100029.69
2023-06-17T04:53:11.355Z,100018.59
2023-06-17T04:58:16.135Z,100028.75
2023-06-17T05:03:22.336Z,100027.03
2023-06-17T05:08:27.421Z,100024.41
2023-06-17T05:13:31.838Z,100031.13
2023-06-17T05:18:35.556Z,100035.84
2023-06-17T05:23:39.053Z,100023.31
2023-06-17T05:28:44.769Z,100031.31
2023-06-17T05:33:47.761Z,100030.09
2023-06-17T05:38:50.698Z,100026.22
2023-06-17T05:43:55.099Z,100036.19
2023-06-17T05:48:58.589Z,100028.44
2023-06-17T05:54:01.523Z,100035.50
2023-06-17T05:59:06.836Z,100032.91
2023-06-17T06:04:15.294Z,100032.34
2023-06-17T06:09:18.254Z,100033.81
2023-06-17T06:14:22.643Z,100039.59
2023-06-17T06:19:26.940Z,100039.44
2023-06-17T06:24:29.772Z,100041.72
2023-06-17T06:29:34.094Z,100044.06
2023-06-17T06:34:36.995Z,100053.13
2023-06-17T06:39:40.251Z,100060.13
2023-06-17T06:44:45.307Z,100074.66
2023-06-17T06:49:52.924Z,100070.31
2023-06-17T06:54:56.552Z,100074.44
2023-06-17T07:00:01.006Z,100071.53
2023-06-17T07:05:05.156Z,100076.63
2023-06-17T07:10:14.778Z,100071.53
2023-06-17T07:15:18.990Z,100086.88
2023-06-17T07:20:24.434Z,100081.94
2023-06-17T07:25:27.442Z,100074.97
2023-06-17T07:30:31.790Z,100073.97
2023-06-17T07:35:34.982Z,100079.13
2023-06-17T07:40:38.624Z,100075.06
2023-06-17T07:45:42.858Z,100074.88
2023-06-17T07:50:46.038Z,100069.31
2023-06-17T07:55:49.011Z,100052.44
2023-06-17T08:00:53.371Z,100058.25
2023-06-17T08:05:56.457Z,100065.75
2023-06-17T08:10:59.240Z,100056.06
2023-06-17T08:16:03.796Z,100054.81
2023-06-17T08:21:06.925Z,100064.34
2023-06-17T08:26:09.715Z,100058.16
2023-06-17T08:31:14.013Z,100057.88
2023-06-17T08:36:17.052Z,100059.06
2023-06-17T08:41:20.128Z,100064.84
2023-06-17T08:46:25.965Z,100062.00
2023-06-17T08:51:29.517Z,100056.03
2023-06-17T08:56:32.341Z,100056.50
2023-06-17T09:01:37.421Z,100055.03
2023-06-17T09:06:41.004Z,100059.16
2023-06-17T09:11:52.416Z,100049.28
2023-06-17T09:16:57.269Z,100048.47
2023-06-17T09:22:06.985Z,100056.84
2023-06-17T09:27:16.898Z,100059.72
2023-06-17T09:32:21.198Z,100059.25
2023-06-17T09:37:24.027Z,100060.09
2023-06-17T09:42:31.936Z,100052.88
2023-06-17T09:47:38.576Z,100050.81
2023-06-17T09:52:41.528Z,100045.69
2023-06-17T09:57:44.810Z,100051.41
2023-06-17T10:02:48.988Z,100056.31
2023-06-17T10:07:53.529Z,100047.28
2023-06-17T10:12:57.642Z,100043.13
2023-06-17T10:18:02.767Z,100047.41
2023-06-17T10:23:06.095Z,100037.56
2023-06-17T10:28:09.130Z,100021.94
2023-06-17T10:33:13.853Z,100019.94
2023-06-17T10:38:29.748Z,100015.16
2023-06-17T10:43:38.168Z,100016.16
2023-06-17T10:48:42.515Z,100011.38
2023-06-17T10:53:49.912Z,100019.63
2023-06-17T10:58:53.054Z,100005.19
2023-06-17T11:04:00.727Z,100008.88
2023-06-17T11:09:05.836Z,100007.78
2023-06-17T11:14:08.637Z,99998.13
2023-06-17T11:19:14.736Z,100001.19
2023-06-17T11:24:17.614Z,99994.63
2023-06-17T11:29:20.763Z,99986.25
2023-06-17T11:34:25.014Z,99992.63
2023-06-17T11:39:30.617Z,99990.38
2023-06-17T11:44:34.441Z,99990.41
2023-06-17T11:49:42.664Z,99980.72
2023-06-17T11:54:49.717Z,99972.94
2023-06-17T11:59:53.364Z,99974.88
2023-06-17T12:05:02.331Z,99963.84
2023-06-17T12:10:05.745Z,99950.38
2023-06-17T12:20:19.375Z,99936.59
2023-06-17T12:25:23.253Z,99933.31
2023-06-17T12:30:26.267Z,99932.34
2023-06-17T12:35:30.859Z,99930.28
2023-06-17T12:40:35.676Z,99929.91
2023-06-17T12:45:41.983Z,99917.19
2023-06-17T12:50:47.457Z,99912.06
2023-06-17T12:55:50.395Z,99914.72
2023-06-17T13:00:53.257Z,99912.63
2023-06-17T13:05:57.537Z,99909.41
2023-06-17T13:11:00.677Z,99907.94
2023-06-17T13:16:03.904Z,99910.81
2023-06-17T13:21:08.373Z,99898.66
2023-06-17T13:26:11.446Z,99909.03
2023-06-17T13:31:14.339Z,99903.91
2023-06-17T13:36:18.692Z,99898.22
2023-06-17T13:41:22.142Z,99896.94
2023-06-17T13:46:25.046Z,99894.06
2023-06-17T13:51:29.379Z,99890.19
2023-06-17T13:56:32.245Z,99885.75
2023-06-17T14:01:35.038Z,99877.16
2023-06-17T14:06:39.784Z,99874.03
2023-06-17T14:11:42.821Z,99857.72
2023-06-17T14:16:45.779Z,99864.44
2023-06-17T14:21:57.011Z,99860.28
2023-06-17T14:27:30.876Z,99866.97
2023-06-17T14:32:33.824Z,99854.75
2023-06-17T14:37:38.430Z,99849.38
2023-06-17T14:42:43.705Z,99834.56
2023-06-17T14:47:46.803Z,99835.66
2023-06-17T14:52:51.400Z,99839.38
2023-06-17T14:57:54.305Z,99822.78
2023-06-17T15:03:00.990Z,99832.78
2023-06-17T15:08:06.048Z,99829.72
2023-06-17T15:13:09.207Z,99841.94
2023-06-17T15:18:12.222Z,99831.19
2023-06-17T15:23:17.036Z,99831.91
2023-06-17T15:28:19.979Z,99836.84
2023-06-17T15:33:24.004Z,99828.25
2023-06-17T15:38:28.203Z,99834.94
2023-06-17T15:43:31.243Z,99833.88
2023-06-17T15:48:35.527Z,99831.97
2023-06-17T15:53:39.797Z,99830.50
2023-06-17T15:58:42.718Z,99840.81
2023-06-17T16:03:45.890Z,99842.31
2023-06-17T16:08:50.105Z,99834.94
2023-06-17T16:13:52.984Z,99849.44
2023-06-17T16:18:55.961Z,99852.75
2023-06-17T16:24:00.366Z,99846.22
2023-06-17T16:29:03.246Z,99854.63
2023-06-17T16:34:06.261Z,99849.16
2023-06-17T16:39:11.100Z,99844.03
2023-06-17T16:44:13.952Z,99851.00
2023-06-17T16:49:16.931Z,99847.88
2023-06-17T16:54:21.168Z,99863.69
2023-06-17T16:59:24.965Z,99857.28
2023-06-17T17:04:28.224Z,99855.34
2023-06-17T17:09:32.504Z,99862.97
2023-06-17T17:14:35.891Z,99861.66
2023-06-17T17:19:38.759Z,99869.22
2023-06-17T17:24:44.034Z,99867.97
2023-06-17T17:29:47.488Z,99876.97
2023-06-17T17:34:50.377Z,99875.69
2023-06-17T17:39:54.673Z,99881.91
2023-06-17T17:44:57.522Z,99884.81
2023-06-17T17:50:00.317Z,99893.00
2023-06-17T17:55:04.730Z,99895.47
2023-06-17T18:00:09.533Z,99900.22
2023-06-17T18:05:19.297Z,99893.25
2023-06-17T18:10:23.966Z,99893.28
2023-06-17T18:15:27.090Z,99900.72
2023-06-17T18:20:29.898Z,99905.03
2023-06-17T18:25:34.105Z,99899.59
2023-06-17T18:30:36.979Z,99904.84
2023-06-17T18:35:39.847Z,99910.59
2023-06-17T18:40:44.015Z,99913.94
2023-06-17T18:45:46.844Z,99914.59
2023-06-17T18:50:50.033Z,99924.06
2023-06-17T18:55:54.228Z,99927.78
2023-06-17T19:00:57.190Z,99931.31
2023-06-17T19:06:00.185Z,99936.78
2023-06-17T19:11:04.501Z,99941.97
2023-06-17T19:16:07.648Z,99942.91
2023-06-17T19:21:10.895Z,99955.03
2023-06-17T19:26:15.727Z,99955.28
2023-06-17T19:31:22.098Z,99958.78
2023-06-17T19:36:25.136Z,99957.63
2023-06-17T19:41:30.595Z,99959.31
2023-06-17T19:46:33.379Z,99970.91
2023-06-17T19:51:36.274Z,99962.13
2023-06-17T19:56:40.664Z,99965.59
2023-06-17T20:01:43.714Z,99975.38
2023-06-17T20:06:46.498Z,99985.66
2023-06-17T20:11:51.471Z,99988.31
2023-06-17T20:16:54.828Z,99989.50
2023-06-17T20:21:57.660Z,99996.81
2023-06-17T20:27:01.962Z,99990.88
2023-06-17T20:32:05.388Z,99999.31
2023-06-17T20:37:08.182Z,99999.31
2023-06-17T20:42:13.110Z,100008.75
2023-06-17T20:47:16.275Z,100018.63
2023-06-17T20:52:19.166Z,100015.28
2023-06-17T20:57:23.598Z,100015.72
2023-06-17T21:02:26.558Z,100006.94
2023-06-17T21:07:29.442Z,100016.66
2023-06-17T21:12:33.895Z,100013.63
2023-06-17T21:17:37.349Z,100015.69
2023-06-17T21:22:40.289Z,100022.97
2023-06-17T21:27:44.590Z,100016.03
2023-06-17T21:32:47.436Z,100012.34
2023-06-17T21:37:50.281Z,100022.41
2023-06-17T21:42:54.430Z,100022.69
2023-06-17T21:47:57.272Z,100011.22
2023-06-17T21:53:00.119Z,100014.91
2023-06-17T21:58:04.345Z,100020.66
2023-06-17T22:03:07.154Z,100028.00
2023-06-17T22:08:10.186Z,100030.66
2023-06-17T22:13:14.323Z,100015.13
2023-06-17T22:18:17.517Z,100020.84
2023-06-17T22:23:20.980Z,100016.97
2023-06-17T22:28:25.166Z,100010.81
2023-06-17T22:33:27.912Z,100003.47
2023-06-17T22:38:30.722Z,100011.00
2023-06-17T22:43:34.900Z,100015.03
2023-06-17T22:48:37.744Z,100016.44
2023-06-17T22:53:40.634Z,100017.63
2023-06-17T22:58:45.846Z,100017.47
2023-06-17T23:03:48.626Z,100014.97
2023-06-17T23:08:51.589Z,100009.03
2023-06-17T23:13:55.827Z,100008.41
2023-06-17T23:18:58.591Z,100011.25
2023-06-17T23:24:01.517Z,100006.72
2023-06-17T23:29:06.943Z,99998.72
2023-06-17T23:34:10.202Z,100002.16
2023-06-17T23:39:13.594Z,99992.78
2023-06-17T23:44:18.673Z,99997.75
2023-06-17T23:49:21.453Z,99991.38
2023-06-17T23:54:24.298Z,99995.03
2023-06-17T23:59:30.667Z,99994.22
